createdAt,value
2018-05-10T00:02:16.644Z,10.05
2018-05-10T00:04:45.158Z,10.06
2018-05-10T00:07:12.710Z,10.06
2018-05-10T00:09:40.291Z,10.01
2018-05-10T00:12:07.880Z,10.01
2018-05-10T00:14:36.021Z,9.98
2018-05-10T00:17:04.065Z,9.98
2018-05-10T00:19:32.039Z,9.95
2018-05-10T00:21:59.587Z,9.92
2018-05-10T00:24:27.250Z,9.87
2018-05-10T00:26:56.123Z,9.83
2018-05-10T00:29:25.147Z,9.82
2018-05-10T00:31:54.916Z,9.80
2018-05-10T00:34:23.937Z,9.77
2018-05-10T00:36:51.574Z,9.75
2018-05-10T00:39:19.160Z,9.74
2018-05-10T00:41:47.184Z,9.73
2018-05-10T00:44:14.716Z,9.70
2018-05-10T00:46:43.015Z,9.67
2018-05-10T00:49:10.541Z,9.63
2018-05-10T00:51:38.224Z,9.62
2018-05-10T00:54:05.839Z,9.60
2018-05-10T00:56:33.378Z,9.58
2018-05-10T00:59:01.767Z,9.55
2018-05-10T01:01:30.082Z,9.52
2018-05-10T01:03:57.627Z,9.49
2018-05-10T01:06:26.169Z,9.49
2018-05-10T01:08:54.775Z,9.46
2018-05-10T01:11:22.470Z,9.44
2018-05-10T01:13:50.796Z,9.41
2018-05-10T01:16:18.429Z,9.40
2018-05-10T01:18:46.881Z,9.38
2018-05-10T01:21:14.736Z,9.36
2018-05-10T01:23:42.447Z,9.34
2018-05-10T01:26:11.335Z,9.30
2018-05-10T01:28:39.763Z,9.30
2018-05-10T01:31:08.878Z,9.31
2018-05-10T01:33:36.642Z,9.28
2018-05-10T01:36:11.593Z,9.29
2018-05-10T01:38:41.926Z,9.27
2018-05-10T01:41:09.642Z,9.27
2018-05-10T01:43:38.744Z,9.27
2018-05-10T01:46:06.864Z,9.24
2018-05-10T01:48:37.211Z,9.23
2018-05-10T01:51:13.482Z,9.21
2018-05-10T01:53:47.769Z,9.19
2018-05-10T01:56:20.956Z,9.19
2018-05-10T01:58:53.007Z,9.18
2018-05-10T02:01:23.683Z,9.15
2018-05-10T02:04:01.989Z,9.13
2018-05-10T02:09:13.684Z,9.11
2018-05-10T02:14:29.956Z,9.09
2018-05-10T02:16:59.152Z,9.08
2018-05-10T02:19:34.293Z,9.08
2018-05-10T02:22:02.859Z,9.11
2018-05-10T02:24:34.418Z,9.13
2018-05-10T02:27:06.397Z,9.12
2018-05-10T02:29:35.767Z,9.12
2018-05-10T02:32:03.451Z,9.09
2018-05-10T02:34:32.079Z,9.07
2018-05-10T02:37:01.009Z,9.06
2018-05-10T02:39:28.618Z,9.03
2018-05-10T02:41:56.275Z,9.03
2018-05-10T02:44:24.592Z,9.02
2018-05-10T02:49:26.252Z,9.04
2018-05-10T02:51:54.881Z,9.04
2018-05-10T02:54:23.037Z,9.07
2018-05-10T02:56:50.664Z,9.07
2018-05-10T02:59:18.328Z,9.16
2018-05-10T03:01:46.463Z,9.25
2018-05-10T03:04:14.086Z,9.40
2018-05-10T03:06:49.925Z,9.55
2018-05-10T03:09:22.523Z,9.70
2018-05-10T03:11:50.308Z,9.80
2018-05-10T03:14:18.934Z,10.01
2018-05-10T03:16:46.568Z,10.21
2018-05-10T03:19:14.599Z,10.43
2018-05-10T03:21:42.764Z,10.65
2018-05-10T03:24:10.325Z,10.89
2018-05-10T03:26:38.802Z,11.01
2018-05-10T03:29:06.358Z,11.17
2018-05-10T03:31:33.899Z,11.25
2018-05-10T03:34:02.155Z,11.58
2018-05-10T03:36:30.395Z,11.82
2018-05-10T03:38:58.020Z,12.10
2018-05-10T03:41:25.746Z,12.41
2018-05-10T03:43:53.485Z,12.72
2018-05-10T03:46:21.097Z,13.00
2018-05-10T03:48:49.359Z,13.17
2018-05-10T03:51:17.546Z,13.26
2018-05-10T03:53:45.636Z,13.20
2018-05-10T03:56:13.168Z,13.25
2018-05-10T03:58:40.703Z,13.26
2018-05-10T04:01:08.870Z,13.13
2018-05-10T04:06:53.404Z,12.73
2018-05-10T04:09:32.771Z,12.53
2018-05-10T04:12:00.412Z,12.44
2018-05-10T04:14:28.713Z,12.39
2018-05-10T04:16:56.325Z,12.27
2018-05-10T04:19:24.672Z,12.20
2018-05-10T04:21:53.416Z,12.14
2018-05-10T04:24:20.967Z,11.98
2018-05-10T04:26:49.731Z,12.04
2018-05-10T04:29:17.271Z,12.07
2018-05-10T04:31:45.842Z,12.12
2018-05-10T04:34:13.378Z,12.10
2018-05-10T04:36:41.608Z,12.10
2018-05-10T04:39:09.150Z,12.06
2018-05-10T04:41:36.709Z,12.02
2018-05-10T04:44:04.290Z,12.13
2018-05-10T04:46:31.843Z,12.19
2018-05-10T04:48:59.404Z,12.27
2018-05-10T04:51:27.482Z,12.30
2018-05-10T04:53:55.117Z,12.32
2018-05-10T04:56:22.829Z,12.37
2018-05-10T04:58:50.431Z,12.41
2018-05-10T05:01:18.823Z,12.44
2018-05-10T05:03:46.386Z,12.42
2018-05-10T05:06:14.482Z,12.46
2018-05-10T05:08:42.118Z,12.48
2018-05-10T05:11:09.620Z,12.48
2018-05-10T05:13:38.081Z,12.51
2018-05-10T05:16:05.648Z,12.56
2018-05-10T05:18:33.835Z,12.57
2018-05-10T05:21:01.398Z,12.63
2018-05-10T05:23:29.735Z,12.72
2018-05-10T05:25:57.823Z,12.81
2018-05-10T05:28:25.911Z,12.93
2018-05-10T05:30:53.936Z,13.11
2018-05-10T05:35:49.818Z,13.43
2018-05-10T05:38:17.352Z,13.61
2018-05-10T05:40:44.899Z,13.70
2018-05-10T05:43:12.540Z,13.78
2018-05-10T05:45:40.035Z,13.87
2018-05-10T05:48:08.333Z,14.03
2018-05-10T05:50:36.440Z,14.27
2018-05-10T05:53:04.094Z,14.35
2018-05-10T05:55:31.653Z,14.44
2018-05-10T05:57:59.235Z,14.59
2018-05-10T06:00:27.387Z,14.72
2018-05-10T06:02:55.925Z,14.84
2018-05-10T06:05:24.201Z,14.92
2018-05-10T06:07:52.393Z,15.04
2018-05-10T06:10:19.941Z,15.16
2018-05-10T06:12:47.532Z,15.28
2018-05-10T06:15:15.785Z,15.34
2018-05-10T06:17:44.064Z,15.39
2018-05-10T06:20:11.600Z,15.49
2018-05-10T06:22:40.029Z,15.58
2018-05-10T06:25:07.674Z,15.68
2018-05-10T06:27:35.793Z,15.78
2018-05-10T06:30:03.341Z,15.83
2018-05-10T06:32:30.878Z,15.99
2018-05-10T06:34:58.978Z,16.12
2018-05-10T06:37:26.509Z,16.22
2018-05-10T06:39:54.224Z,16.33
2018-05-10T06:42:21.890Z,16.46
2018-05-10T06:44:50.190Z,16.55
2018-05-10T06:47:17.732Z,16.65
2018-05-10T06:49:45.883Z,16.79
2018-05-10T06:52:13.465Z,16.87
2018-05-10T06:54:41.031Z,16.97
2018-05-10T06:57:08.614Z,17.10
2018-05-10T06:59:37.433Z,17.22
2018-05-10T07:02:05.992Z,17.23
2018-05-10T07:04:33.526Z,17.27
2018-05-10T07:09:59.796Z,17.59
2018-05-10T07:12:27.180Z,17.69
2018-05-10T07:14:55.824Z,17.79
2018-05-10T07:17:24.789Z,17.92
2018-05-10T07:19:52.423Z,17.99
2018-05-10T07:22:20.414Z,18.05
2018-05-10T07:24:48.432Z,18.11
2018-05-10T07:27:16.504Z,18.23
2018-05-10T07:29:44.047Z,18.36
2018-05-10T07:32:11.579Z,18.43
2018-05-10T07:34:39.135Z,18.50
2018-05-10T07:37:07.197Z,18.64
2018-05-10T07:39:34.757Z,18.79
2018-05-10T07:42:02.398Z,18.94
2018-05-10T07:44:30.746Z,19.04
2018-05-10T07:46:58.306Z,19.17
2018-05-10T07:49:25.847Z,19.27
2018-05-10T07:51:54.249Z,19.34
2018-05-10T07:54:22.380Z,19.47
2018-05-10T07:56:49.926Z,19.62
2018-05-10T07:59:17.496Z,19.68
2018-05-10T08:01:45.440Z,19.79
2018-05-10T08:04:12.996Z,19.87
2018-05-10T08:06:41.074Z,19.89
2018-05-10T08:09:08.646Z,19.80
2018-05-10T08:11:36.195Z,19.75
2018-05-10T08:14:04.367Z,19.74
2018-05-10T08:16:31.891Z,19.78
2018-05-10T08:19:00.320Z,19.91
2018-05-10T08:21:31.379Z,20.04
2018-05-10T08:23:59.534Z,20.19
2018-05-10T08:26:27.862Z,20.32
2018-05-10T08:28:55.522Z,20.50
2018-05-10T08:31:23.346Z,20.58
2018-05-10T08:33:50.899Z,20.65
2018-05-10T08:36:19.012Z,20.75
2018-05-10T08:38:46.562Z,20.90
2018-05-10T08:41:14.103Z,20.98
2018-05-10T08:46:39.765Z,20.98
2018-05-10T08:49:07.363Z,21.02
2018-05-10T08:51:35.398Z,21.11
2018-05-10T08:54:02.935Z,21.17
2018-05-10T08:56:30.494Z,21.16
2018-05-10T08:58:58.073Z,21.20
2018-05-10T09:01:26.234Z,21.22
2018-05-10T09:03:54.586Z,21.26
2018-05-10T09:06:23.299Z,21.28
2018-05-10T09:08:50.878Z,21.29
2018-05-10T09:11:18.415Z,21.33
2018-05-10T09:13:46.443Z,21.39
2018-05-10T09:16:14.029Z,21.46
2018-05-10T09:18:42.127Z,21.60
2018-05-10T09:21:10.035Z,21.74
2018-05-10T09:23:38.124Z,21.82
2018-05-10T09:26:06.141Z,21.83
2018-05-10T09:28:33.683Z,21.92
2018-05-10T09:31:01.252Z,22.01
2018-05-10T09:33:28.838Z,22.13
2018-05-10T09:35:56.914Z,22.19
2018-05-10T09:38:24.607Z,22.31
2018-05-10T09:40:52.394Z,22.36
2018-05-10T09:43:19.950Z,22.35
2018-05-10T09:45:47.496Z,22.41
2018-05-10T09:48:15.060Z,22.52
2018-05-10T09:50:43.135Z,22.65
2018-05-10T09:53:10.683Z,22.62
2018-05-10T09:55:38.275Z,22.69
2018-05-10T09:58:05.861Z,22.78
2018-05-10T10:00:34.201Z,22.86
2018-05-10T10:03:02.706Z,22.93
2018-05-10T10:05:31.051Z,23.04
2018-05-10T10:07:58.590Z,23.15
2018-05-10T10:10:26.122Z,23.24
2018-05-10T10:12:53.923Z,23.33
2018-05-10T10:15:22.322Z,23.38
2018-05-10T10:17:50.380Z,23.41
2018-05-10T10:20:18.401Z,23.49
2018-05-10T10:22:46.392Z,23.50
2018-05-10T10:25:13.979Z,23.58
2018-05-10T10:27:41.970Z,23.61
2018-05-10T10:30:09.516Z,23.65
2018-05-10T10:32:37.708Z,23.57
2018-05-10T10:35:05.991Z,23.59
2018-05-10T10:37:33.532Z,23.66
2018-05-10T10:40:01.072Z,23.71
2018-05-10T10:42:28.660Z,23.75
2018-05-10T10:44:56.201Z,23.81
2018-05-10T10:47:24.889Z,23.92
2018-05-10T10:49:53.308Z,23.90
2018-05-10T10:52:20.858Z,24.02
2018-05-10T10:54:48.411Z,24.13
2018-05-10T10:57:15.992Z,24.26
2018-05-10T10:59:44.018Z,24.27
2018-05-10T11:02:12.107Z,24.39
2018-05-10T11:04:39.652Z,24.47
2018-05-10T11:07:07.691Z,24.48
2018-05-10T11:09:35.375Z,24.48
2018-05-10T11:12:02.919Z,24.45
2018-05-10T11:14:31.148Z,24.45
2018-05-10T11:16:59.435Z,24.55
2018-05-10T11:19:27.951Z,24.68
2018-05-10T11:21:57.084Z,24.78
2018-05-10T11:24:24.630Z,24.95
2018-05-10T11:26:52.913Z,25.06
2018-05-10T11:29:20.462Z,24.94
2018-05-10T11:31:48.012Z,24.94
2018-05-10T11:34:15.602Z,24.87
2018-05-10T11:36:45.095Z,24.97
2018-05-10T11:39:12.694Z,25.03
2018-05-10T11:41:40.315Z,25.05
2018-05-10T11:44:07.892Z,25.08
2018-05-10T11:46:35.443Z,24.99
2018-05-10T11:49:03.002Z,24.99
2018-05-10T11:51:31.069Z,25.07
2018-05-10T11:53:58.615Z,25.13
2018-05-10T11:56:26.192Z,25.19
2018-05-10T11:58:54.580Z,25.23
2018-05-10T12:01:24.058Z,25.31
2018-05-10T12:03:52.928Z,25.41
2018-05-10T12:06:21.338Z,25.50
2018-05-10T12:08:48.867Z,25.57
2018-05-10T12:11:16.969Z,25.63
2018-05-10T12:13:45.142Z,25.77
2018-05-10T12:16:12.666Z,25.91
2018-05-10T12:18:41.132Z,25.96
2018-05-10T12:21:08.662Z,26.02
2018-05-10T12:23:36.997Z,26.09
2018-05-10T12:26:05.246Z,26.14
2018-05-10T12:28:34.005Z,26.15
2018-05-10T12:31:01.554Z,26.13
2018-05-10T12:33:29.759Z,26.02
2018-05-10T12:35:58.065Z,25.96
2018-05-10T12:38:25.722Z,25.94
2018-05-10T12:40:54.073Z,25.96
2018-05-10T12:43:21.637Z,25.99
2018-05-10T12:45:49.199Z,26.03
2018-05-10T12:48:16.874Z,26.09
2018-05-10T12:50:44.920Z,26.11
2018-05-10T12:53:12.639Z,26.11
2018-05-10T12:55:40.165Z,26.07
2018-05-10T12:58:07.746Z,26.09
2018-05-10T13:00:36.020Z,26.12
2018-05-10T13:03:04.244Z,26.07
2018-05-10T13:05:32.348Z,26.09
2018-05-10T13:07:59.895Z,26.11
2018-05-10T13:10:28.304Z,26.17
2018-05-10T13:12:55.850Z,26.23
2018-05-10T13:15:24.439Z,26.26
2018-05-10T13:17:52.986Z,26.22
2018-05-10T13:20:20.526Z,26.14
2018-05-10T13:22:48.716Z,25.98
2018-05-10T13:25:16.268Z,25.96
2018-05-10T13:27:44.848Z,25.99
2018-05-10T13:30:12.400Z,26.07
2018-05-10T13:32:39.935Z,26.13
2018-05-10T13:35:08.688Z,26.21
2018-05-10T13:37:36.234Z,26.29
2018-05-10T13:40:03.860Z,26.32
2018-05-10T13:42:31.411Z,26.36
2018-05-10T13:44:58.950Z,26.40
2018-05-10T13:47:26.610Z,26.28
2018-05-10T13:49:55.462Z,26.23
2018-05-10T13:52:23.363Z,26.29
2018-05-10T13:54:50.931Z,26.29
2018-05-10T13:57:18.505Z,26.34
2018-05-10T13:59:47.261Z,26.37
2018-05-10T14:02:15.613Z,26.35
2018-05-10T14:04:44.070Z,26.17
2018-05-10T14:07:12.512Z,26.14
2018-05-10T14:09:40.737Z,25.97
2018-05-10T14:12:08.299Z,25.89
2018-05-10T14:14:36.681Z,25.95
2018-05-10T14:17:04.957Z,25.87
2018-05-10T14:19:33.030Z,25.79
2018-05-10T14:22:01.496Z,25.75
2018-05-10T14:24:29.024Z,25.77
2018-05-10T14:26:57.211Z,25.73
2018-05-10T14:29:24.896Z,25.67
2018-05-10T14:31:52.584Z,25.64
2018-05-10T14:34:21.197Z,25.64
2018-05-10T14:36:49.571Z,25.70
2018-05-10T14:39:17.120Z,25.69
2018-05-10T14:41:44.668Z,25.72
2018-05-10T14:44:13.066Z,25.74
2018-05-10T14:46:40.680Z,25.74
2018-05-10T14:49:08.360Z,25.75
2018-05-10T14:51:36.568Z,25.82
2018-05-10T14:54:04.151Z,25.79
2018-05-10T14:56:31.683Z,25.77
2018-05-10T14:58:59.280Z,25.74
2018-05-10T15:01:27.300Z,25.66
2018-05-10T15:03:56.275Z,25.55
2018-05-10T15:06:24.684Z,25.37
2018-05-10T15:08:52.433Z,25.20
2018-05-10T15:11:19.979Z,25.12
2018-05-10T15:13:48.112Z,25.06
2018-05-10T15:16:15.660Z,25.09
2018-05-10T15:18:43.815Z,25.16
2018-05-10T15:21:11.388Z,25.29
2018-05-10T15:23:39.381Z,25.49
2018-05-10T15:26:07.506Z,25.76
2018-05-10T15:28:35.069Z,25.79
2018-05-10T15:31:02.604Z,25.66
2018-05-10T15:33:30.211Z,25.68
2018-05-10T15:35:58.473Z,25.76
2018-05-10T15:38:26.006Z,25.67
2018-05-10T15:40:53.859Z,25.60
2018-05-10T15:43:21.467Z,25.67
2018-05-10T15:45:48.999Z,25.50
2018-05-10T15:48:16.552Z,25.53
2018-05-10T15:50:45.099Z,25.63
2018-05-10T15:53:12.678Z,25.67
2018-05-10T15:55:40.239Z,25.47
2018-05-10T15:58:07.816Z,25.61
2018-05-10T16:00:35.360Z,26.44
2018-05-10T16:03:03.876Z,27.21
2018-05-10T16:05:32.140Z,27.94
2018-05-10T16:07:59.692Z,28.47
2018-05-10T16:10:27.221Z,28.98
2018-05-10T16:12:54.920Z,29.07
2018-05-10T16:15:22.992Z,29.39
2018-05-10T16:17:51.199Z,29.47
2018-05-10T16:20:18.743Z,29.54
2018-05-10T16:22:46.655Z,29.21
2018-05-10T16:25:14.196Z,29.02
2018-05-10T16:27:42.649Z,29.21
2018-05-10T16:30:10.192Z,29.35
2018-05-10T16:32:37.716Z,29.23
2018-05-10T16:35:05.668Z,29.21
2018-05-10T16:37:34.028Z,29.23
2018-05-10T16:40:01.607Z,29.12
2018-05-10T16:42:29.171Z,29.31
2018-05-10T16:44:57.250Z,29.32
2018-05-10T16:47:24.787Z,29.37
2018-05-10T16:49:53.289Z,29.50
2018-05-10T16:52:20.868Z,29.52
2018-05-10T16:54:48.451Z,29.44
2018-05-10T16:57:16.031Z,29.41
2018-05-10T16:59:44.048Z,29.58
2018-05-10T17:02:12.453Z,29.53
2018-05-10T17:04:39.993Z,29.43
2018-05-10T17:07:08.147Z,29.24
2018-05-10T17:09:35.682Z,29.07
2018-05-10T17:12:03.217Z,29.13
2018-05-10T17:14:31.504Z,29.08
2018-05-10T17:16:59.164Z,29.02
2018-05-10T17:19:27.321Z,28.94
2018-05-10T17:21:56.096Z,28.90
2018-05-10T17:24:23.668Z,28.90
2018-05-10T17:26:51.975Z,28.73
2018-05-10T17:29:19.530Z,28.59
2018-05-10T17:31:47.068Z,28.45
2018-05-10T17:34:15.183Z,28.28
2018-05-10T17:36:43.160Z,28.01
2018-05-10T17:39:10.723Z,27.92
2018-05-10T17:41:38.348Z,27.93
2018-05-10T17:44:05.887Z,27.78
2018-05-10T17:46:34.101Z,27.69
2018-05-10T17:49:01.676Z,27.45
2018-05-10T17:51:30.410Z,27.23
2018-05-10T17:53:57.968Z,26.91
2018-05-10T17:56:25.632Z,26.59
2018-05-10T17:58:53.977Z,26.27
2018-05-10T18:01:22.976Z,26.16
2018-05-10T18:03:51.069Z,25.93
2018-05-10T18:06:18.998Z,25.71
2018-05-10T18:08:46.533Z,25.52
2018-05-10T18:11:14.170Z,25.43
2018-05-10T18:13:42.894Z,25.24
2018-05-10T18:16:10.461Z,25.13
2018-05-10T18:18:38.683Z,24.81
2018-05-10T18:21:06.215Z,24.43
2018-05-10T18:23:34.497Z,24.12
2018-05-10T18:26:02.769Z,23.75
2018-05-10T18:28:30.307Z,23.39
2018-05-10T18:30:57.863Z,23.03
2018-05-10T18:33:25.551Z,22.79
2018-05-10T18:35:59.720Z,22.52
2018-05-10T18:38:27.251Z,22.29
2018-05-10T18:40:55.533Z,22.11
2018-05-10T18:43:23.311Z,21.90
2018-05-10T18:45:50.988Z,21.75
2018-05-10T18:48:18.551Z,21.58
2018-05-10T18:50:47.015Z,21.40
2018-05-10T18:53:14.547Z,21.26
2018-05-10T18:55:42.572Z,21.12
2018-05-10T18:58:10.846Z,21.00
2018-05-10T19:00:38.421Z,20.89
2018-05-10T19:03:06.535Z,20.80
2018-05-10T19:05:34.467Z,20.67
2018-05-10T19:08:02.038Z,20.59
2018-05-10T19:10:29.568Z,20.50
2018-05-10T19:12:57.144Z,20.43
2018-05-10T19:15:25.818Z,20.32
2018-05-10T19:17:54.248Z,20.25
2018-05-10T19:20:21.843Z,20.17
2018-05-10T19:22:49.877Z,20.11
2018-05-10T19:25:17.406Z,20.03
2018-05-10T19:27:44.996Z,19.95
2018-05-10T19:30:12.623Z,19.86
2018-05-10T19:32:40.675Z,19.79
2018-05-10T19:35:09.055Z,19.67
2018-05-10T19:37:36.605Z,19.60
2018-05-10T19:40:04.285Z,19.53
2018-05-10T19:42:31.864Z,19.46
2018-05-10T19:44:59.604Z,19.39
2018-05-10T19:47:27.724Z,19.36
2018-05-10T19:49:56.143Z,19.33
2018-05-10T19:52:24.641Z,19.29
2018-05-10T19:54:53.002Z,19.23
2018-05-10T19:57:20.541Z,19.18
2018-05-10T19:59:48.081Z,19.11
2018-05-10T20:02:16.187Z,19.03
2018-05-10T20:04:44.464Z,18.98
2018-05-10T20:07:12.091Z,18.92
2018-05-10T20:09:39.647Z,18.88
2018-05-10T20:12:07.232Z,18.81
2018-05-10T20:14:35.633Z,18.75
2018-05-10T20:17:03.818Z,18.70
2018-05-10T20:19:31.837Z,18.64
2018-05-10T20:22:00.541Z,18.58
2018-05-10T20:24:28.094Z,18.49
2018-05-10T20:26:55.714Z,18.42
2018-05-10T20:29:23.611Z,18.37
2018-05-10T20:31:51.168Z,18.30
2018-05-10T20:34:19.370Z,18.23
2018-05-10T20:36:47.567Z,18.15
2018-05-10T20:39:15.112Z,18.10
2018-05-10T20:41:42.696Z,18.07
2018-05-10T20:44:10.250Z,18.04
2018-05-10T20:46:37.776Z,17.98
2018-05-10T20:49:05.343Z,17.95
2018-05-10T20:51:33.562Z,17.92
2018-05-10T20:54:01.799Z,17.88
2018-05-10T20:56:29.426Z,17.82
2018-05-10T20:58:56.986Z,17.80
2018-05-10T21:01:25.300Z,17.73
2018-05-10T21:03:54.696Z,17.70
2018-05-10T21:06:22.965Z,17.66
2018-05-10T21:08:50.523Z,17.62
2018-05-10T21:11:18.075Z,17.57
2018-05-10T21:13:46.589Z,17.55
2018-05-10T21:16:14.132Z,17.50
2018-05-10T21:18:42.220Z,17.42
2018-05-10T21:21:09.765Z,17.39
2018-05-10T21:23:38.003Z,17.35
2018-05-10T21:26:06.630Z,17.33
2018-05-10T21:28:34.191Z,17.28
2018-05-10T21:31:01.753Z,17.23
2018-05-10T21:33:29.323Z,17.20
2018-05-10T21:35:57.338Z,17.15
2018-05-10T21:38:24.931Z,17.11
2018-05-10T21:40:52.973Z,17.07
2018-05-10T21:43:20.551Z,17.03
2018-05-10T21:45:48.085Z,17.03
2018-05-10T21:48:16.266Z,17.06
2018-05-10T21:50:44.127Z,17.08
2018-05-10T21:53:11.764Z,17.11
2018-05-10T21:55:39.277Z,17.18
2018-05-10T21:58:06.865Z,17.24
2018-05-10T22:00:34.405Z,17.31
2018-05-10T22:03:03.138Z,17.38
2018-05-10T22:05:31.218Z,17.42
2018-05-10T22:07:58.864Z,17.50
2018-05-10T22:10:26.394Z,17.53
2018-05-10T22:12:54.321Z,17.55
2018-05-10T22:15:22.496Z,17.57
2018-05-10T22:17:50.677Z,17.64
2018-05-10T22:20:18.224Z,17.68
2018-05-10T22:22:46.044Z,17.71
2018-05-10T22:25:13.578Z,17.71
2018-05-10T22:27:41.099Z,17.73
2018-05-10T22:30:08.682Z,17.74
2018-05-10T22:32:37.081Z,17.76
2018-05-10T22:35:05.234Z,17.74
2018-05-10T22:37:32.791Z,17.72
2018-05-10T22:40:00.379Z,17.71
2018-05-10T22:42:27.974Z,17.69
2018-05-10T22:44:56.780Z,17.62
2018-05-10T22:47:25.150Z,17.56
2018-05-10T22:49:54.275Z,17.47
2018-05-10T22:52:23.322Z,17.39
2018-05-10T22:54:50.909Z,17.33
2018-05-10T22:57:18.468Z,17.30
2018-05-10T22:59:46.145Z,17.25
2018-05-10T23:02:14.120Z,17.20
2018-05-10T23:04:42.056Z,17.15
2018-05-10T23:07:09.844Z,17.12
2018-05-10T23:09:37.399Z,17.08
2018-05-10T23:12:05.027Z,17.06
2018-05-10T23:14:33.165Z,17.03
2018-05-10T23:17:00.714Z,16.97
2018-05-10T23:19:28.858Z,16.91
2018-05-10T23:21:56.852Z,16.87
2018-05-10T23:24:24.512Z,16.82
2018-05-10T23:26:52.291Z,16.72
2018-05-10T23:29:19.868Z,16.69
2018-05-10T23:31:48.869Z,16.68
2018-05-10T23:34:16.420Z,16.64
2018-05-10T23:36:44.672Z,16.60
2018-05-10T23:39:12.210Z,16.59
2018-05-10T23:41:39.760Z,16.53
2018-05-10T23:44:08.193Z,16.52
2018-05-10T23:46:35.742Z,16.55
2018-05-10T23:49:03.276Z,16.57
2018-05-10T23:51:31.548Z,16.58
2018-05-10T23:53:59.093Z,16.61
2018-05-10T23:56:26.652Z,16.61
2018-05-10T23:58:54.638Z,16.60
